Terminal Aerodrome Forecast
Issued by NWS Omaha/Valley, NE

Home | Current Version | Previous Version | Text Only | Print | Product List | Glossary On
Versions: 1 2 3 4 5 6 7 8 9 10 11 12 13 14 15 16 17 18 19 20 21 22 23 24 25 26 27 28 29 30 31 32 33 34 35 36 37 38 39 40 41 42 43 44 45 46 47 48 49 50
000
FTUS43 KOAX 241120
TAFOMA
TAF
KOMA 241120Z 2412/2512 36006KT 5SM -RA BR SCT008 BKN090
     FM241300 36006KT P6SM OVC070
     FM241500 02008KT P6SM VCSH BKN050
     FM242000 02006KT P6SM BKN030
     FM242200 04009KT P6SM VCTS BKN025CB
     FM250000 01014KT 3SM RA VCTS OVC010CB
     FM250200 02017KT 3SM RA OVC008
     FM250600 36013KT 4SM -RA OVC008
     FM251000 36013KT 3SM -RA OVC005=

USA.gov is the U.S. government's official web portal to all federal, state and local government web resources and services.